AirNav   Everest Fuels
 
 922 users online  

NC34 Miles Airport
Chapel Hill, North Carolina, USA

GOING TO CHAPEL HILL?


FAA INFORMATION EFFECTIVE 07 NOVEMBER 2019

Location

FAA Identifier: NC34
Lat/Long: 35-58-44.1186N 079-07-36.6996W
35-58.735310N 079-07.611660W
35.9789218,-79.1268610
(estimated)
Elevation: 580 ft. / 177 m (estimated)
Variation: 07W (1985)
From city: 5 miles NW of CHAPEL HILL, NC
Time zone: UTC -5 (UTC -4 during Daylight Saving Time)
Zip code: 27516

Airport Operations

Airport use: Private use. Permission required prior to landing
Activation date: 11/1988
Control tower: no
ARTCC: WASHINGTON CENTER
FSS: RALEIGH FLIGHT SERVICE STATION
Attendance: UNATNDD
Wind indicator: yes
Segmented circle: no

Airport Communications

WX ASOS at BUY (17 nm W): 135.325 (336-570-9813)
WX ASOS at RDU (18 nm E): PHONE 919-840-0816
WX AWOS-3 at TDF (20 nm N): 126.725 (336-364-1651)

Nearby radio navigation aids

VOR radial/distance  VOR name  Freq  Var
RDUr300/17.9RALEIGH/DURHAM VORTAC117.2009W
LIBr070/25.7LIBERTY VORTAC113.0003W
DANr170/(36.8)DANVILLE VOR113.1006W

 
NDB name  Hdg/Dist  Freq  Var  ID
PERSON199/15.522008WHUR .... ..- .-.
HUNTSBORO241/31.327109WHXO .... -..- ---
SLAMMER135/39.142307WSIF ... .. ..-.
HARNETT334/39.541708WHQT .... --.- -

Airport Services

Runway Information

Runway 9/27

Dimensions: 2500 x 120 ft. / 762 x 37 m
Surface: turf
RUNWAY 9  RUNWAY 27
Traffic pattern: leftright
Displaced threshold: 300 ft.no
Obstructions: 70 ft. trees, 50 ft. from runway40 ft. trees, 100 ft. from runway

Airport Ownership and Management from official FAA records

Ownership: Privately-owned
Owner: MICHAEL G. MILES
6721 UNION GROVE CHURCH RD
HILLSBOROUGH, NC 27278-7407
Phone 919-967-5458
Manager: MICHAEL G. MILES
6721 UNION GROVE CHURCH RD
HILLSBOROUGH, NC 27278
Phone 919-967-5458

Airport Operational Statistics

Aircraft based on the field: 1
Single engine airplanes: 1
    

Additional Remarks

FOR CD CTC WASHINGTON ARTCC AT 703-771-3587.

Instrument Procedures

There are no published instrument procedures at NC34.

Some nearby airports with instrument procedures:

KBUY - Burlington-Alamance Regional Airport (17 nm W)
KRDU - Raleigh-Durham International Airport (18 nm E)
KTDF - Person County Airport (20 nm N)
KTTA - Raleigh Executive Jetport at Sanford-Lee County Airport (24 nm S)
2A5 - Causey Airport (24 nm W)
 
Loc | Ops | Rwys | IFR | FBO | Links
Com | Nav | Svcs | Stats | Notes
Area around NC34 (Miles Airport)
 
Road maps at: MapQuest Bing Google
 
Aerial photo
No photo
 
Sectional chart

 
Airport distance calculator
Flying to Miles Airport? Find the distance to fly.

From to NC34

Sunrise and sunset
Times for 11-Nov-2019
 Local
(UTC-5)
 Zulu
(UTC)
Morning civil twilight06:2311:23
Sunrise06:5011:50
Sunset17:1122:11
Evening civil twilight17:3822:38

Current date and time
Zulu (UTC)  12-Nov-2019 01:26:58
Local (UTC-5)  11-Nov-2019 20:26:58
 
METAR
KBUY 
17nm W 
120054Z AUTO 19004KT 10SM CLR 14/03 A2998 RMK AO2 SLP153 T01390028 $
KRDU 
18nm E 
120051Z 21011KT 10SM FEW200 BKN250 15/02 A3000 RMK AO2 SLP158 T01500022
KTDF 
20nm N 
120115Z AUTO 20004KT 10SM CLR 11/02 A3000 RMK AO2
TAF
KRDU 
18nm E 
111735Z 1118/1218 22010KT P6SM SCT250 FM120800 22006KT P6SM BKN035 FM121200 25004KT 6SM -RA OVC015 FM121400 31009KT 4SM -RA BR OVC005
NOTAMs
Click for the latest NOTAMs
NOTAMs are issued by the DoD/FAA and will open in a separate window not controlled by AirNav.

 

 
 

Would you like to see your business listed on this page?

 If your business provides an interesting product or service to pilots, flight crews, aircraft, or users of the Miles Airport, you should consider listing it here.  To start the listing process, click on the button below
 
Add a business
 

Other Pages about Miles Airport

Update a link
 
Copyright © AirNav, LLC. All rights reserved. Privacy Policy  Contact